Time;durP1;ratioP1;P1;durP2;ratioP2;P2;SDS_P1;SDS_P2;PMS_P1;PMS_P2;Temp;Humidity;BMP_temperature;BMP_pressure;BME280_temperature;BME280_humidity;BME280_pressure;Samples;Min_cycle;Max_cycle;Signal;HPM_P1;HPM_P2
2022/10/22 00:00:53;;;;;;;6.60;4.47;;;;;;;13.90;100.00;99879.81;4960827;29;20214;-81
2022/10/22 00:03:19;;;;;;;5.27;3.70;;;;;;;13.83;100.00;99882.75;4960816;29;20295;-81
2022/10/22 00:05:47;;;;;;;5.10;3.60;;;;;;;13.83;100.00;99888.84;4960849;29;20730;-77
2022/10/22 00:08:14;;;;;;;5.00;3.67;;;;;;;13.83;100.00;99901.97;4960268;28;20212;-80
2022/10/22 00:10:40;;;;;;;6.40;4.17;;;;;;;13.84;100.00;99908.09;4961221;29;20211;-79
2022/10/22 00:13:07;;;;;;;4.77;3.47;;;;;;;13.82;100.00;99925.66;4961782;28;20220;-79
2022/10/22 00:15:34;;;;;;;4.80;3.30;;;;;;;13.82;100.00;99923.06;4961098;29;20233;-79
2022/10/22 00:18:00;;;;;;;7.87;4.00;;;;;;;13.80;100.00;99922.25;4960656;29;20235;-80
2022/10/22 00:20:27;;;;;;;7.80;3.80;;;;;;;13.79;100.00;99912.66;4961492;29;20212;-80
2022/10/22 00:22:55;;;;;;;4.20;3.80;;;;;;;13.77;100.00;99898.75;4961510;29;20422;-80
2022/10/22 00:25:21;;;;;;;6.43;3.60;;;;;;;13.77;100.00;99877.78;4961150;29;20605;-80
2022/10/22 00:27:48;;;;;;;9.53;3.73;;;;;;;13.73;100.00;99860.47;4961006;29;20681;-81
2022/10/22 00:30:15;;;;;;;3.40;3.07;;;;;;;13.73;100.00;99861.31;4960632;29;20710;-80
2022/10/22 00:32:41;;;;;;;7.70;3.57;;;;;;;13.69;100.00;99860.56;4961222;29;20606;-79
2022/10/22 00:35:08;;;;;;;6.50;3.50;;;;;;;13.73;100.00;99863.06;4961207;29;20207;-81
2022/10/22 00:37:35;;;;;;;5.40;3.23;;;;;;;13.74;100.00;99865.66;4961423;29;20240;-80
2022/10/22 00:40:03;;;;;;;6.57;3.70;;;;;;;13.77;100.00;99867.28;4959453;29;20212;-80
2022/10/22 00:42:30;;;;;;;6.93;2.80;;;;;;;13.76;100.00;99889.19;4959651;29;20246;-80
2022/10/22 00:45:15;;;;;;;4.13;2.70;;;;;;;13.74;100.00;99896.28;4961087;29;20226;-78
2022/10/22 00:47:46;;;;;;;4.70;3.13;;;;;;;13.74;100.00;99872.66;4961464;29;20207;-79
2022/10/22 00:50:17;;;;;;;8.43;2.93;;;;;;;13.71;100.00;99876.25;4960008;29;20661;-78
2022/10/22 00:52:44;;;;;;;6.87;3.70;;;;;;;13.72;100.00;99871.88;4960468;29;20219;-80
2022/10/22 00:55:13;;;;;;;5.73;2.90;;;;;;;13.71;100.00;99876.25;4960725;29;20211;-80
2022/10/22 00:57:40;;;;;;;9.30;3.00;;;;;;;13.70;100.00;99882.44;4960086;28;20234;-80
2022/10/22 01:00:08;;;;;;;3.47;3.17;;;;;;;13.71;100.00;99892.00;4959016;28;20215;-80
2022/10/22 01:02:35;;;;;;;5.77;3.00;;;;;;;13.74;100.00;99896.28;4959546;29;20700;-78
2022/10/22 01:05:02;;;;;;;3.57;3.17;;;;;;;13.70;100.00;99892.91;4959820;29;20210;-79
2022/10/22 01:07:29;;;;;;;5.43;2.87;;;;;;;13.69;100.00;99878.94;4960406;29;20226;-79
2022/10/22 01:10:07;;;;;;;5.67;2.70;;;;;;;13.72;100.00;99874.50;4960055;29;20213;-80
2022/10/22 01:12:44;;;;;;;3.87;3.00;;;;;;;13.62;100.00;99860.91;4960449;29;20246;-79
2022/10/22 01:15:19;;;;;;;3.83;2.97;;;;;;;13.61;100.00;99854.78;4947160;29;20215;-80
2022/10/22 01:17:55;;;;;;;7.23;3.50;;;;;;;13.61;100.00;99848.69;4940761;29;20234;-80
2022/10/22 01:20:50;;;;;;;3.30;3.00;;;;;;;13.66;100.00;99846.75;4940697;29;20212;-80
2022/10/22 01:23:38;;;;;;;3.53;3.23;;;;;;;13.67;100.00;99857.16;4940443;29;20214;-80
2022/10/22 01:26:12;;;;;;;5.37;3.30;;;;;;;13.61;100.00;99880.16;4938524;29;20242;-80
2022/10/22 01:28:58;;;;;;;6.43;3.40;;;;;;;13.55;100.00;99880.41;4940603;29;20199;-78
2022/10/22 01:31:29;;;;;;;4.67;3.23;;;;;;;13.53;100.00;99863.91;4940156;29;20336;-79
2022/10/22 01:33:58;;;;;;;5.90;3.40;;;;;;;13.51;100.00;99863.94;4940664;29;20207;-79
2022/10/22 01:36:25;;;;;;;10.97;3.57;;;;;;;13.56;100.00;99855.88;4940033;29;20593;-80
2022/10/22 01:38:53;;;;;;;3.37;3.07;;;;;;;13.52;100.00;99857.81;4940510;29;20227;-79
2022/10/22 01:41:20;;;;;;;6.63;3.03;;;;;;;13.53;100.00;99858.66;4939913;29;20234;-80
2022/10/22 01:43:46;;;;;;;3.57;2.87;;;;;;;13.50;100.00;99864.88;4940370;29;20214;-78
2022/10/22 01:46:22;;;;;;;4.97;3.40;;;;;;;13.54;100.00;99852.47;4940875;29;20230;-78
2022/10/22 01:49:04;;;;;;;7.33;3.63;;;;;;;13.57;100.00;99834.00;4940181;29;20206;-79
2022/10/22 01:51:44;;;;;;;8.27;3.60;;;;;;;13.51;100.00;99832.50;4939876;29;20222;-79
2022/10/22 01:54:25;;;;;;;4.93;2.63;;;;;;;13.54;100.00;99834.13;4940029;29;20217;-80
2022/10/22 01:57:04;;;;;;;7.70;3.33;;;;;;;13.47;100.00;99826.50;4940376;29;20225;-81
2022/10/22 01:59:39;;;;;;;9.53;3.80;;;;;;;13.55;100.00;99833.22;4939794;29;20519;-80
2022/10/22 02:02:15;;;;;;;3.47;2.90;;;;;;;13.50;100.00;99834.25;4939759;29;20590;-78
2022/10/22 02:04:46;;;;;;;6.50;3.83;;;;;;;13.53;100.00;99821.94;4940422;29;20212;-80
2022/10/22 02:07:18;;;;;;;9.67;3.53;;;;;;;13.49;100.00;99826.44;4940169;29;20250;-80
2022/10/22 02:09:45;;;;;;;3.67;2.83;;;;;;;13.50;100.00;99830.81;4939359;29;20660;-80
2022/10/22 02:12:14;;;;;;;7.80;3.33;;;;;;;13.53;100.00;99829.81;4948183;29;20441;-76
2022/10/22 02:14:44;;;;;;;7.40;3.40;;;;;;;13.55;100.00;99841.94;4950185;29;20222;-76
2022/10/22 02:17:16;;;;;;;8.47;3.27;;;;;;;13.55;100.00;99843.72;4951195;29;20573;-76
2022/10/22 02:19:50;;;;;;;4.87;3.13;;;;;;;13.57;100.00;99847.13;4951169;29;20231;-77
2022/10/22 02:22:17;;;;;;;12.47;3.50;;;;;;;13.56;100.00;99862.00;4950222;29;20211;-75
2022/10/22 02:24:44;;;;;;;5.60;3.57;;;;;;;13.57;100.00;99858.47;4948195;29;20211;-78
2022/10/22 02:27:20;;;;;;;6.40;2.80;;;;;;;13.59;100.00;99853.16;4938032;29;20233;-77
2022/10/22 02:29:53;;;;;;;3.43;3.13;;;;;;;13.54;100.00;99844.59;4937693;29;20213;-76
2022/10/22 02:32:26;;;;;;;4.70;3.30;;;;;;;13.55;100.00;99836.69;4937417;29;20708;-76
2022/10/22 02:34:55;;;;;;;5.47;3.50;;;;;;;13.57;100.00;99834.00;4937739;29;20207;-76
2022/10/22 02:37:24;;;;;;;9.17;3.07;;;;;;;13.53;100.00;99832.44;4937884;29;20235;-77
2022/10/22 02:39:51;;;;;;;3.27;2.83;;;;;;;13.51;100.00;99830.72;4938087;29;20705;-76
2022/10/22 02:42:18;;;;;;;8.63;4.63;;;;;;;13.49;100.00;99847.44;4938037;29;20215;-77
2022/10/22 02:44:44;;;;;;;4.37;3.97;;;;;;;13.51;100.00;99841.19;4938003;29;20215;-77
2022/10/22 02:47:11;;;;;;;6.37;3.60;;;;;;;13.58;100.00;99844.44;4937056;29;20728;-76
2022/10/22 02:49:39;;;;;;;6.60;3.10;;;;;;;13.58;100.00;99864.56;4937153;29;20203;-77
2022/10/22 02:52:05;;;;;;;4.67;3.23;;;;;;;13.55;100.00;99862.91;4937758;29;20211;-78
2022/10/22 02:54:32;;;;;;;4.87;3.30;;;;;;;13.57;100.00;99866.31;4937133;29;20207;-78
2022/10/22 02:56:58;;;;;;;4.83;3.27;;;;;;;13.57;100.00;99873.34;4937272;29;20242;-78
2022/10/22 02:59:25;;;;;;;9.47;3.57;;;;;;;13.51;100.00;99871.81;4937007;29;20302;-77
2022/10/22 03:01:51;;;;;;;5.53;3.50;;;;;;;13.55;100.00;99880.41;4937114;29;20207;-76
2022/10/22 03:04:18;;;;;;;8.53;3.47;;;;;;;13.58;100.00;99883.78;4937508;29;20219;-77
2022/10/22 03:06:47;;;;;;;8.10;3.40;;;;;;;13.56;100.00;99872.50;4937110;29;20254;-77
2022/10/22 03:09:14;;;;;;;4.93;3.40;;;;;;;13.57;100.00;99873.34;4937303;29;20239;-76
2022/10/22 03:11:41;;;;;;;13.17;3.87;;;;;;;13.56;100.00;99874.25;4937099;29;20218;-78
2022/10/22 03:14:07;;;;;;;5.13;3.00;;;;;;;13.61;100.00;99874.94;4936777;29;20203;-77
2022/10/22 03:16:34;;;;;;;6.57;3.60;;;;;;;13.59;100.00;99882.00;4937722;29;20240;-79
2022/10/22 03:19:01;;;;;;;5.33;3.00;;;;;;;13.60;100.00;99888.97;4937451;29;20235;-78
2022/10/22 03:21:34;;;;;;;3.93;3.27;;;;;;;13.62;100.00;99897.63;4936562;29;20260;-78
2022/10/22 03:24:07;;;;;;;6.70;3.23;;;;;;;13.64;100.00;99895.78;4936932;29;20208;-78
2022/10/22 03:26:34;;;;;;;4.63;3.30;;;;;;;13.65;100.00;99900.09;4936625;29;20235;-78
2022/10/22 03:29:00;;;;;;;7.00;3.70;;;;;;;13.63;100.00;99909.81;4936795;29;20212;-79
2022/10/22 03:31:27;;;;;;;7.03;3.27;;;;;;;13.63;100.00;99908.03;4936736;29;20302;-79
2022/10/22 03:33:54;;;;;;;4.77;3.57;;;;;;;13.55;100.00;99906.66;4937786;29;20584;-78
2022/10/22 03:36:20;;;;;;;8.87;3.50;;;;;;;13.55;100.00;99891.75;4937317;29;20584;-78
2022/10/22 03:38:47;;;;;;;5.10;3.43;;;;;;;13.59;100.00;99895.97;4936665;29;20615;-77
2022/10/22 03:41:15;;;;;;;3.70;3.17;;;;;;;13.57;100.00;99899.56;4937173;29;20584;-77
2022/10/22 03:43:42;;;;;;;10.80;3.90;;;;;;;13.59;100.00;99902.97;4936612;29;20215;-78
2022/10/22 03:46:08;;;;;;;8.40;3.70;;;;;;;13.59;100.00;99906.44;4936811;29;20242;-76
2022/10/22 03:48:35;;;;;;;6.93;3.90;;;;;;;13.56;100.00;99913.56;4937046;29;20204;-78
2022/10/22 03:51:01;;;;;;;3.83;3.07;;;;;;;13.59;100.00;99919.56;4936826;29;20218;-77
2022/10/22 03:53:28;;;;;;;6.30;3.40;;;;;;;13.59;100.00;99922.19;4937046;29;20221;-78
2022/10/22 03:55:54;;;;;;;5.37;2.83;;;;;;;13.56;100.00;99927.56;4936705;29;20252;-78
2022/10/22 03:58:22;;;;;;;12.33;4.40;;;;;;;13.54;100.00;99926.78;4937059;29;20218;-78
2022/10/22 04:00:48;;;;;;;4.63;3.73;;;;;;;13.59;100.00;99927.44;4936469;29;20226;-77
2022/10/22 04:03:15;;;;;;;8.93;3.93;;;;;;;13.55;100.00;99925.00;4936568;29;20207;-77
2022/10/22 04:05:41;;;;;;;10.03;3.53;;;;;;;13.55;100.00;99922.38;4936531;29;20250;-77
2022/10/22 04:08:08;;;;;;;7.93;3.60;;;;;;;13.55;100.00;99917.13;4936313;29;20624;-77
2022/10/22 04:10:35;;;;;;;5.00;4.03;;;;;;;13.54;100.00;99924.16;4936180;29;20216;-78
2022/10/22 04:13:01;;;;;;;6.43;4.03;;;;;;;13.53;100.00;99921.59;4936788;29;20218;-77
2022/10/22 04:15:29;;;;;;;5.40;3.67;;;;;;;13.51;100.00;99924.25;4936428;29;20585;-77
2022/10/22 04:17:56;;;;;;;5.00;4.20;;;;;;;13.51;100.00;99906.75;4936531;29;20214;-77
2022/10/22 04:20:22;;;;;;;5.97;4.00;;;;;;;13.51;100.00;99903.28;4936517;29;20227;-78
2022/10/22 04:22:49;;;;;;;3.83;3.33;;;;;;;13.51;100.00;99904.13;4936262;29;20598;-77
2022/10/22 04:25:15;;;;;;;4.10;3.70;;;;;;;13.52;100.00;99912.88;4936683;29;20207;-77
2022/10/22 04:27:42;;;;;;;4.60;3.80;;;;;;;13.53;100.00;99917.19;4936750;29;20227;-78
2022/10/22 04:30:09;;;;;;;4.30;3.60;;;;;;;13.53;100.00;99932.91;4936509;29;20210;-80
2022/10/22 04:32:37;;;;;;;4.37;3.33;;;;;;;13.54;100.00;99939.00;4937575;29;20216;-79
2022/10/22 04:35:04;;;;;;;5.03;3.90;;;;;;;13.52;100.00;99941.72;4939877;29;20217;-78
2022/10/22 04:37:31;;;;;;;3.90;3.27;;;;;;;13.50;100.00;99939.16;4940387;29;20722;-78
2022/10/22 04:39:58;;;;;;;4.07;3.17;;;;;;;13.56;100.00;99931.94;4940800;29;20291;-79
2022/10/22 04:42:24;;;;;;;3.73;3.40;;;;;;;13.59;100.00;99935.28;4940806;29;20213;-79
2022/10/22 04:44:51;;;;;;;5.03;3.37;;;;;;;13.58;100.00;99928.34;4940556;29;20690;-78
2022/10/22 04:47:17;;;;;;;3.73;3.23;;;;;;;13.59;100.00;99940.53;4940566;29;20241;-78
2022/10/22 04:49:45;;;;;;;4.30;3.37;;;;;;;13.59;100.00;99939.69;4940669;29;20218;-79
2022/10/22 04:52:12;;;;;;;6.33;3.27;;;;;;;13.61;100.00;99950.97;4940759;29;20211;-80
2022/10/22 04:54:39;;;;;;;4.87;3.37;;;;;;;13.55;100.00;99949.44;4941167;29;20258;-81
2022/10/22 04:57:05;;;;;;;3.93;3.23;;;;;;;13.59;100.00;99942.31;4941329;29;20230;-77
2022/10/22 04:59:32;;;;;;;2.77;2.57;;;;;;;13.60;100.00;99947.50;4940784;29;20231;-78
2022/10/22 05:01:58;;;;;;;3.87;3.07;;;;;;;13.49;100.00;99940.03;4939899;29;20222;-80
2022/10/22 05:04:25;;;;;;;7.87;3.00;;;;;;;13.50;100.00;99931.28;4941251;29;20219;-79
2022/10/22 05:06:53;;;;;;;6.83;2.83;;;;;;;13.48;100.00;99933.09;4940404;29;20238;-78
2022/10/22 05:09:20;;;;;;;9.53;3.07;;;;;;;13.45;100.00;99929.75;4941202;29;20207;-80
2022/10/22 05:11:48;;;;;;;9.63;3.33;;;;;;;13.44;100.00;99930.69;4939391;29;20214;-77
2022/10/22 05:14:16;;;;;;;6.53;3.27;;;;;;;13.40;100.00;99943.03;4938565;29;20219;-78
2022/10/22 05:16:44;;;;;;;4.87;3.10;;;;;;;13.43;100.00;99939.44;4938257;29;20274;-79
2022/10/22 05:19:19;;;;;;;5.13;2.60;;;;;;;13.45;100.00;99941.09;4938355;29;20259;-79
2022/10/22 05:21:46;;;;;;;5.20;2.90;;;;;;;13.44;100.00;99942.00;4938436;29;20205;-77
2022/10/22 05:24:14;;;;;;;5.67;2.70;;;;;;;13.48;100.00;99956.72;4938622;29;20206;-78
2022/10/22 05:26:41;;;;;;;3.83;2.37;;;;;;;13.50;100.00;99960.13;4938557;29;20234;-77
2022/10/22 05:29:08;;;;;;;5.10;2.37;;;;;;;13.47;100.00;99954.97;4938017;29;20713;-77
2022/10/22 05:31:35;;;;;;;3.83;2.50;;;;;;;13.50;100.00;99964.53;4948386;29;20569;-78
2022/10/22 05:34:01;;;;;;;6.10;2.70;;;;;;;13.54;100.00;99968.72;4951175;29;20680;-80
2022/10/22 05:36:28;;;;;;;6.87;2.33;;;;;;;13.55;100.00;99972.19;4956317;29;20222;-77
2022/10/22 05:38:54;;;;;;;3.47;2.33;;;;;;;13.50;100.00;99983.72;4953852;29;20221;-77
2022/10/22 05:41:24;;;;;;;6.60;2.13;;;;;;;13.50;100.00;99985.50;4955981;29;20206;-77
2022/10/22 05:43:51;;;;;;;4.80;1.77;;;;;;;13.53;100.00;99987.13;4956305;29;20205;-78
2022/10/22 05:46:20;;;;;;;4.87;1.87;;;;;;;13.54;100.00;99983.59;4956277;28;20705;-78
2022/10/22 05:48:49;;;;;;;2.67;2.47;;;;;;;13.43;100.00;99978.78;4956388;29;20213;-79
2022/10/22 05:51:16;;;;;;;2.37;2.17;;;;;;;13.39;100.00;99974.56;4953956;29;20229;-78
2022/10/22 05:53:43;;;;;;;8.83;2.80;;;;;;;13.40;100.00;99974.50;4956136;29;20472;-78
2022/10/22 05:56:13;;;;;;;2.97;2.63;;;;;;;13.40;100.00;99985.00;4956143;29;20237;-77
2022/10/22 05:58:42;;;;;;;3.10;2.17;;;;;;;13.41;100.00;99977.97;4956562;29;20207;-77
2022/10/22 06:01:12;;;;;;;6.57;3.00;;;;;;;13.39;100.00;99983.28;4956192;29;20231;-80
2022/10/22 06:03:39;;;;;;;5.57;3.40;;;;;;;13.34;100.00;99979.97;4954285;29;20683;-77
2022/10/22 06:06:17;;;;;;;5.83;3.37;;;;;;;13.35;100.00;99971.19;4956015;29;20235;-79
2022/10/22 06:08:44;;;;;;;5.50;3.90;;;;;;;13.36;100.00;99975.53;4954561;29;20209;-78
2022/10/22 06:11:10;;;;;;;4.50;4.10;;;;;;;13.38;100.00;99981.56;4958214;29;20193;-78
2022/10/22 06:13:37;;;;;;;4.07;3.50;;;;;;;13.41;100.00;99991.09;4958062;29;20666;-76
2022/10/22 06:16:05;;;;;;;5.10;4.70;;;;;;;13.42;100.00;99992.78;4957191;29;20598;-77
2022/10/22 06:18:32;;;;;;;4.07;3.77;;;;;;;13.48;100.00;99998.66;4957135;29;20213;-79
2022/10/22 06:21:04;;;;;;;4.43;4.00;;;;;;;13.51;100.00;100006.41;4956367;29;20236;-76
2022/10/22 06:23:30;;;;;;;6.63;3.77;;;;;;;13.49;100.00;100005.59;4956425;29;20202;-80
2022/10/22 06:25:57;;;;;;;7.27;4.17;;;;;;;13.52;100.00;100012.50;4955494;29;20222;-79
2022/10/22 06:28:24;;;;;;;4.60;4.20;;;;;;;13.57;100.00;100010.56;4959534;29;20210;-79
2022/10/22 06:30:51;;;;;;;5.07;4.37;;;;;;;13.59;100.00;100019.22;4959419;29;20197;-79
2022/10/22 06:33:19;;;;;;;6.40;3.90;;;;;;;13.62;100.00;100021.75;4960379;29;20210;-77
2022/10/22 06:35:47;;;;;;;9.63;3.93;;;;;;;13.55;100.00;100035.97;4959428;29;20229;-79
2022/10/22 06:38:13;;;;;;;8.40;4.40;;;;;;;13.59;100.00;100037.56;4959348;29;20687;-78
2022/10/22 06:40:42;;;;;;;4.93;4.10;;;;;;;13.60;100.00;100031.44;4959373;29;20231;-78
2022/10/22 06:43:09;;;;;;;13.97;4.77;;;;;;;13.60;100.00;100034.06;4958936;29;20604;-78
2022/10/22 06:45:35;;;;;;;6.23;4.17;;;;;;;13.60;100.00;100043.69;4956681;29;20222;-78
2022/10/22 06:48:02;;;;;;;7.97;4.47;;;;;;;13.64;100.00;100055.78;4958016;29;20207;-79
2022/10/22 06:50:30;;;;;;;5.80;5.20;;;;;;;13.64;100.00;100056.63;4955735;29;20723;-78
2022/10/22 06:52:57;;;;;;;4.70;4.40;;;;;;;13.67;100.00;100053.88;4954529;28;20681;-78
2022/10/22 06:55:23;;;;;;;5.07;4.57;;;;;;;13.68;100.00;100050.34;4952258;29;20234;-78
2022/10/22 06:57:50;;;;;;;8.83;4.80;;;;;;;13.70;100.00;100053.78;4953805;28;20683;-78
2022/10/22 07:00:16;;;;;;;5.90;5.27;;;;;;;13.70;100.00;100055.53;4951755;29;20222;-78
2022/10/22 07:02:43;;;;;;;5.07;4.67;;;;;;;13.72;100.00;100063.38;4954891;28;20212;-78
2022/10/22 07:05:10;;;;;;;9.90;4.30;;;;;;;13.73;100.00;100068.53;4954563;29;20210;-78
2022/10/22 07:07:37;;;;;;;6.30;4.70;;;;;;;13.72;100.00;100071.22;4954511;29;20229;-79
2022/10/22 07:10:05;;;;;;;5.90;4.90;;;;;;;13.74;100.00;100077.28;4953163;29;20206;-77
2022/10/22 07:12:33;;;;;;;5.27;4.07;;;;;;;13.75;100.00;100074.56;4943742;29;20740;-79
2022/10/22 07:15:00;;;;;;;6.57;4.60;;;;;;;13.78;100.00;100084.13;4944159;28;20211;-79
2022/10/22 07:17:26;;;;;;;5.23;4.67;;;;;;;13.77;100.00;100077.13;4945303;29;20222;-78
2022/10/22 07:19:53;;;;;;;5.67;4.63;;;;;;;13.82;100.00;100085.69;4943930;29;20227;-78
2022/10/22 07:22:19;;;;;;;5.07;4.33;;;;;;;13.75;100.00;100085.06;4944222;29;20201;-79
2022/10/22 07:24:47;;;;;;;4.70;4.30;;;;;;;13.73;100.00;100084.25;4947397;29;20691;-79
2022/10/22 07:27:14;;;;;;;7.80;5.80;;;;;;;13.76;100.00;100088.56;4943747;29;20220;-76
2022/10/22 07:29:40;;;;;;;6.60;4.27;;;;;;;13.77;100.00;100083.22;4936738;29;20213;-77
2022/10/22 07:32:07;;;;;;;7.90;5.33;;;;;;;13.77;100.00;100093.72;4936127;29;20219;-79
2022/10/22 07:34:33;;;;;;;5.40;4.17;;;;;;;13.78;100.00;100090.22;4936101;29;20213;-77
2022/10/22 07:37:00;;;;;;;6.20;4.73;;;;;;;13.86;100.00;100095.16;4936489;29;20246;-76
2022/10/22 07:39:27;;;;;;;9.60;4.67;;;;;;;13.87;100.00;100097.75;4935860;29;20222;-78
2022/10/22 07:41:55;;;;;;;7.33;5.10;;;;;;;13.91;100.00;100101.06;4935956;29;20215;-76
2022/10/22 07:44:22;;;;;;;5.57;4.70;;;;;;;13.87;100.00;100095.13;4935754;29;20214;-78
2022/10/22 07:46:48;;;;;;;5.40;4.93;;;;;;;13.94;100.00;100102.75;4935761;29;20721;-77
2022/10/22 07:49:15;;;;;;;4.90;4.50;;;;;;;13.99;100.00;100095.53;4936117;29;20222;-77
2022/10/22 07:51:41;;;;;;;5.30;4.83;;;;;;;13.97;100.00;100100.00;4936810;29;20218;-77
2022/10/22 07:54:07;;;;;;;5.47;5.03;;;;;;;13.96;100.00;100087.78;4936285;29;20217;-78
2022/10/22 07:56:34;;;;;;;5.97;4.77;;;;;;;14.00;100.00;100094.63;4935942;29;20751;-78
2022/10/22 07:59:02;;;;;;;5.33;4.93;;;;;;;14.02;100.00;100109.41;4936329;29;20219;-79
2022/10/22 08:01:28;;;;;;;4.23;3.93;;;;;;;14.03;100.00;100105.88;4934495;29;20227;-79
2022/10/22 08:03:55;;;;;;;4.57;4.10;;;;;;;14.07;100.00;100112.72;4935339;29;20214;-78
2022/10/22 08:06:21;;;;;;;5.03;4.53;;;;;;;14.06;100.00;100116.25;4934691;29;20238;-78
2022/10/22 08:08:48;;;;;;;4.53;4.03;;;;;;;14.16;100.00;100121.16;4936802;29;20210;-78
2022/10/22 08:11:15;;;;;;;4.37;3.97;;;;;;;14.17;100.00;100136.84;4938594;29;20217;-79
2022/10/22 08:13:41;;;;;;;3.73;3.43;;;;;;;14.20;100.00;100141.09;4939023;29;20216;-78
2022/10/22 08:16:09;;;;;;;6.53;3.93;;;;;;;14.18;100.00;100141.16;4938118;29;20241;-78
2022/10/22 08:18:37;;;;;;;4.80;4.40;;;;;;;14.24;100.00;100145.31;4938250;29;20214;-77
2022/10/22 08:21:04;;;;;;;3.77;3.47;;;;;;;14.20;100.00;100146.34;4937691;29;20713;-77
2022/10/22 08:23:30;;;;;;;4.27;3.60;;;;;;;14.22;100.00;100157.66;4938085;29;20257;-77
2022/10/22 08:25:58;;;;;;;4.70;4.40;;;;;;;14.26;100.00;100162.72;4938099;29;20230;-77
2022/10/22 08:28:27;;;;;;;4.07;3.77;;;;;;;14.27;100.00;100151.31;4937853;29;20211;-77
2022/10/22 08:30:53;;;;;;;5.33;3.60;;;;;;;14.30;100.00;100152.97;4937826;29;20215;-77
2022/10/22 08:33:21;;;;;;;4.20;3.70;;;;;;;14.30;100.00;100143.31;4937491;29;20218;-77
2022/10/22 08:35:49;;;;;;;16.00;13.77;;;;;;;14.30;100.00;100139.81;4937626;29;20595;-77
2022/10/22 08:38:15;;;;;;;11.80;10.80;;;;;;;14.35;100.00;100144.88;4937896;29;20206;-77
2022/10/22 08:40:44;;;;;;;5.77;5.27;;;;;;;14.30;100.00;100150.34;4937044;29;20242;-77
2022/10/22 08:43:30;;;;;;;5.70;3.97;;;;;;;14.36;100.00;100152.72;4937853;29;20249;-77
2022/10/22 08:46:08;;;;;;;6.70;3.80;;;;;;;14.41;100.00;100150.78;4937266;29;20261;-77
2022/10/22 08:48:43;;;;;;;4.53;4.00;;;;;;;14.44;100.00;100128.78;4937880;29;20273;-78
2022/10/22 08:51:12;;;;;;;4.23;3.83;;;;;;;14.46;100.00;100132.19;4937586;29;20213;-77
2022/10/22 08:53:45;;;;;;;8.77;4.60;;;;;;;14.44;100.00;100131.41;4938177;29;20211;-76
2022/10/22 08:56:14;;;;;;;4.67;4.27;;;;;;;14.45;100.00;100131.34;4937495;29;20231;-76
2022/10/22 08:58:46;;;;;;;5.27;4.00;;;;;;;14.49;100.00;100125.06;4937588;29;20686;-76
2022/10/22 09:01:15;;;;;;;3.30;3.00;;;;;;;14.58;100.00;100144.03;4936545;29;20727;-76
2022/10/22 09:03:49;;;;;;;5.07;3.87;;;;;;;14.70;100.00;100159.28;4937055;29;20270;-76
2022/10/22 09:06:19;;;;;;;5.20;3.27;;;;;;;14.78;100.00;100172.09;4936599;29;20725;-76
2022/10/22 09:08:47;;;;;;;3.63;3.40;;;;;;;14.79;100.00;100174.69;4936867;29;20211;-76
2022/10/22 09:11:24;;;;;;;3.50;3.10;;;;;;;14.88;100.00;100182.19;4936396;29;20588;-77
2022/10/22 09:13:52;;;;;;;6.37;3.43;;;;;;;14.93;100.00;100187.25;4936713;29;20215;-76
2022/10/22 09:16:24;;;;;;;4.07;3.53;;;;;;;14.96;100.00;100165.25;4936788;29;20239;-76
2022/10/22 09:19:03;;;;;;;4.47;3.50;;;;;;;15.03;100.00;100180.69;4937083;29;20220;-77
2022/10/22 09:21:38;;;;;;;3.90;3.60;;;;;;;15.11;100.00;100188.28;4936006;29;20242;-77
2022/10/22 09:24:09;;;;;;;15.87;4.73;;;;;;;15.16;100.00;100196.81;4937067;29;20215;-77
2022/10/22 09:26:38;;;;;;;3.57;3.30;;;;;;;15.16;100.00;100182.81;4937021;29;20239;-77
2022/10/22 09:29:06;;;;;;;4.00;3.57;;;;;;;15.16;100.00;100182.81;4936920;29;20882;-77
2022/10/22 09:31:34;;;;;;;4.40;4.10;;;;;;;15.20;100.00;100176.50;4942824;29;20203;-77
2022/10/22 09:34:06;;;;;;;3.83;3.53;;;;;;;15.22;100.00;100187.81;4955419;29;20210;-77
2022/10/22 09:36:33;;;;;;;4.27;3.67;;;;;;;15.23;100.00;100181.63;4952729;29;20574;-76
2022/10/22 09:39:00;;;;;;;4.83;3.60;;;;;;;15.28;100.00;100185.78;4955856;29;20202;-77
2022/10/22 09:41:29;;;;;;;3.90;3.10;;;;;;;15.36;100.00;100181.97;4955193;28;20772;-77
2022/10/22 09:43:57;;;;;;;5.10;3.90;;;;;;;15.32;100.00;100177.75;4956665;29;20707;-78
2022/10/22 09:46:27;;;;;;;4.60;4.20;;;;;;;15.35;100.00;100180.25;4955276;29;20608;-77
2022/10/22 09:49:03;;;;;;;4.17;3.87;;;;;;;15.43;100.00;100202.66;4956237;28;20281;-77
2022/10/22 09:51:50;;;;;;;4.97;4.43;;;;;;;15.48;100.00;100194.59;4956227;29;20578;-77
2022/10/22 09:54:20;;;;;;;5.00;4.70;;;;;;;15.57;100.00;100204.72;4956512;29;20205;-77
2022/10/22 09:56:55;;;;;;;5.67;5.20;;;;;;;15.67;100.00;100200.75;4956026;29;20524;-76
2022/10/22 09:59:28;;;;;;;5.73;5.20;;;;;;;15.75;100.00;100194.34;4955204;29;20688;-76
2022/10/22 10:02:04;;;;;;;4.47;3.37;;;;;;;15.85;100.00;100235.13;4955040;29;20310;-76
2022/10/22 10:04:39;;;;;;;4.07;3.70;;;;;;;15.97;100.00;100237.19;4955381;29;20217;-77
2022/10/22 10:07:15;;;;;;;3.57;3.27;;;;;;;16.10;100.00;100270.91;4954826;29;20239;-77
2022/10/22 10:09:42;;;;;;;4.20;3.90;;;;;;;16.17;100.00;100273.16;4955210;29;20413;-77
2022/10/22 10:12:21;;;;;;;4.67;4.27;;;;;;;16.25;99.14;100307.06;4957687;29;20646;-78
2022/10/22 10:14:57;;;;;;;3.43;3.20;;;;;;;16.37;99.47;100319.72;4958284;29;20213;-79
2022/10/22 10:17:33;;;;;;;2.80;2.60;;;;;;;16.44;99.00;100320.28;4958767;29;20237;-78
2022/10/22 10:20:21;;;;;;;4.30;2.93;;;;;;;16.56;98.47;100332.03;4958188;28;20688;-77
2022/10/22 10:22:57;;;;;;;7.27;3.17;;;;;;;16.59;96.94;100361.75;4957526;29;20670;-79
2022/10/22 10:25:35;;;;;;;3.47;2.77;;;;;;;16.67;95.92;100379.84;4959194;29;20748;-79
2022/10/22 10:28:12;;;;;;;3.00;2.70;;;;;;;16.68;95.22;100382.41;4958508;28;20227;-79
2022/10/22 10:30:46;;;;;;;3.63;2.57;;;;;;;16.71;95.14;100386.69;4956685;29;20221;-77
2022/10/22 10:33:23;;;;;;;3.70;3.40;;;;;;;16.74;95.51;100373.38;4955437;29;20214;-78
2022/10/22 10:36:01;;;;;;;2.63;2.43;;;;;;;16.77;94.36;100404.00;4955984;29;20246;-78
2022/10/22 10:38:51;;;;;;;3.27;2.97;;;;;;;16.79;93.87;100405.66;4956608;29;20665;-78
2022/10/22 10:41:26;;;;;;;2.80;2.53;;;;;;;16.77;92.28;100439.16;4957296;29;20239;-78
2022/10/22 10:44:22;;;;;;;4.47;3.03;;;;;;;16.80;91.98;100441.63;4957412;28;20217;-78
2022/10/22 10:46:59;;;;;;;5.90;2.70;;;;;;;16.90;92.93;100433.34;4955969;29;20233;-79
2022/10/22 10:49:29;;;;;;;3.73;2.63;;;;;;;16.99;93.34;100415.31;4955669;29;20710;-78
2022/10/22 10:52:09;;;;;;;3.87;3.57;;;;;;;17.03;92.85;100424.81;4957527;29;20203;-79
2022/10/22 10:54:45;;;;;;;4.20;3.50;;;;;;;17.03;91.80;100458.25;4956156;29;20212;-78
2022/10/22 10:57:22;;;;;;;3.37;3.07;;;;;;;16.93;90.27;100505.25;4955358;29;20229;-78
2022/10/22 11:00:01;;;;;;;4.33;2.97;;;;;;;17.00;90.95;100495.28;4955478;29;20219;-78
2022/10/22 11:02:58;;;;;;;4.03;3.17;;;;;;;17.11;91.59;100473.72;4955752;29;20227;-78
2022/10/22 11:05:30;;;;;;;5.13;3.80;;;;;;;17.11;91.18;100476.34;4951876;29;20231;-79
2022/10/22 11:08:03;;;;;;;4.13;3.37;;;;;;;17.16;91.79;100455.88;4956179;29;20226;-78
2022/10/22 11:10:34;;;;;;;4.10;3.33;;;;;;;17.19;91.16;100451.31;4956224;29;20211;-78
2022/10/22 11:13:07;;;;;;;4.00;3.17;;;;;;;17.21;90.11;100475.00;4956566;29;20576;-77
2022/10/22 11:15:37;;;;;;;7.43;3.90;;;;;;;17.19;89.05;100495.31;4957171;29;20235;-77
2022/10/22 11:18:12;;;;;;;3.43;3.17;;;;;;;17.23;87.79;100536.47;4954187;29;20212;-77
2022/10/22 11:20:48;;;;;;;3.80;3.00;;;;;;;17.27;87.87;100533.59;4953912;29;20216;-78
2022/10/22 11:23:23;;;;;;;3.07;2.87;;;;;;;17.36;88.58;100531.47;4953968;29;20211;-78
2022/10/22 11:25:50;;;;;;;3.67;2.90;;;;;;;17.31;87.07;100536.13;4953899;29;20258;-77
2022/10/22 11:28:23;;;;;;;4.23;3.73;;;;;;;17.32;87.63;100553.66;4953537;29;20211;-77
2022/10/22 11:30:58;;;;;;;3.97;3.57;;;;;;;17.33;87.65;100536.91;4955114;29;20238;-78
2022/10/22 11:33:28;;;;;;;4.50;3.63;;;;;;;17.31;86.89;100570.41;4957099;29;20681;-79